createdAt,value
2017-07-24T05:31:14.600Z,15.83
2017-07-24T05:31:40.094Z,15.84
2017-07-24T05:32:05.510Z,15.86
2017-07-24T05:32:31.021Z,15.84
2017-07-24T05:32:56.475Z,15.8
2017-07-24T05:33:21.926Z,15.9
2017-07-24T05:33:47.383Z,15.86
2017-07-24T05:34:12.884Z,15.79
2017-07-24T05:34:38.369Z,15.8
2017-07-24T05:35:03.816Z,15.88
2017-07-24T05:35:29.266Z,15.77
2017-07-24T05:35:54.769Z,15.76
2017-07-24T05:36:20.253Z,15.8
2017-07-24T05:36:45.737Z,15.8
2017-07-24T05:37:11.241Z,15.73
2017-07-24T05:37:36.709Z,15.73
2017-07-24T05:38:02.357Z,15.83
2017-07-24T05:38:27.860Z,15.76
2017-07-24T05:38:53.311Z,15.83
2017-07-24T05:39:18.807Z,15.82
2017-07-24T05:39:44.308Z,15.72
2017-07-24T05:40:09.806Z,15.8
2017-07-24T05:40:35.225Z,15.76
2017-07-24T05:41:00.676Z,15.72
2017-07-24T05:41:26.191Z,15.79
2017-07-24T05:41:51.680Z,15.73
2017-07-24T05:42:17.137Z,15.75
2017-07-24T05:42:42.653Z,15.75
2017-07-24T05:43:08.131Z,15.76
2017-07-24T05:43:33.607Z,15.79
2017-07-24T05:43:59.099Z,15.8
2017-07-24T05:44:24.549Z,15.73
2017-07-24T05:44:50.045Z,15.76
2017-07-24T05:45:15.510Z,15.75
2017-07-24T05:45:41.023Z,15.75
2017-07-24T05:46:06.466Z,15.77
2017-07-24T05:46:31.920Z,15.7
2017-07-24T05:46:57.359Z,15.64
2017-07-24T05:47:22.838Z,15.68
2017-07-24T05:47:48.297Z,15.67
2017-07-24T05:48:13.798Z,15.7
2017-07-24T05:48:39.264Z,15.8
2017-07-24T05:49:04.783Z,15.7
2017-07-24T05:49:30.252Z,15.65
2017-07-24T05:49:55.724Z,15.73
2017-07-24T05:50:21.236Z,15.68
2017-07-24T05:50:46.699Z,15.75
2017-07-24T05:51:12.160Z,15.7
2017-07-24T05:51:37.650Z,15.8
2017-07-24T05:52:03.105Z,15.8
2017-07-24T05:52:28.569Z,15.73
2017-07-24T05:52:54.007Z,15.77
2017-07-24T05:53:19.535Z,15.7
2017-07-24T05:53:45.055Z,15.75
2017-07-24T05:54:10.575Z,15.65
2017-07-24T05:54:36.057Z,15.7
2017-07-24T05:55:01.566Z,15.7
2017-07-24T05:55:27.051Z,15.65
2017-07-24T05:55:52.554Z,15.72
2017-07-24T05:56:18.041Z,15.68
2017-07-24T05:56:43.517Z,15.73
2017-07-24T05:57:09.031Z,15.82
2017-07-24T05:57:34.525Z,15.73
2017-07-24T05:58:00.013Z,15.77
2017-07-24T05:58:25.526Z,15.82
2017-07-24T05:58:51.022Z,15.75
2017-07-24T05:59:16.532Z,15.73
2017-07-24T05:59:42.006Z,15.76
2017-07-24T06:00:07.601Z,15.79
2017-07-24T06:00:32.991Z,15.76
2017-07-24T06:00:58.443Z,15.77
2017-07-24T06:01:23.916Z,15.75
2017-07-24T06:01:49.412Z,15.73
2017-07-24T06:02:14.876Z,15.77
2017-07-24T06:02:40.337Z,15.72
2017-07-24T06:03:05.821Z,15.76
2017-07-24T06:03:31.307Z,15.72
2017-07-24T06:03:56.778Z,15.8
2017-07-24T06:04:22.278Z,15.67
2017-07-24T06:04:47.720Z,15.75
2017-07-24T06:05:13.202Z,15.77
2017-07-24T06:05:38.653Z,15.73
2017-07-24T06:06:04.113Z,15.76
2017-07-24T06:06:29.591Z,15.73
2017-07-24T06:06:55.064Z,15.73
2017-07-24T06:07:20.546Z,15.72
2017-07-24T06:07:46.016Z,15.75
2017-07-24T06:08:11.497Z,15.77
2017-07-24T06:08:36.978Z,15.8
2017-07-24T06:09:02.434Z,15.8
2017-07-24T06:09:27.941Z,15.73
2017-07-24T06:09:53.438Z,15.68
2017-07-24T06:10:18.921Z,15.76
2017-07-24T06:10:44.431Z,15.75
2017-07-24T06:11:09.862Z,15.76
2017-07-24T06:11:35.373Z,15.68
2017-07-24T06:12:00.850Z,15.73
2017-07-24T06:12:26.352Z,15.7
2017-07-24T06:12:51.856Z,15.67
2017-07-24T06:13:17.370Z,15.77
2017-07-24T06:13:42.842Z,15.77
2017-07-24T06:14:08.328Z,15.76
2017-07-24T06:14:33.825Z,15.7
2017-07-24T06:14:59.305Z,15.77
2017-07-24T06:15:24.738Z,15.82
2017-07-24T06:15:50.262Z,15.77
2017-07-24T06:16:15.725Z,15.73
2017-07-24T06:16:41.262Z,15.83
2017-07-24T06:17:06.770Z,15.7
2017-07-24T06:17:32.259Z,15.77
2017-07-24T06:17:57.736Z,15.75
2017-07-24T06:18:23.243Z,15.73
2017-07-24T06:18:48.707Z,15.76
2017-07-24T06:19:14.211Z,15.77
2017-07-24T06:19:39.667Z,15.73
2017-07-24T06:20:05.184Z,15.68
2017-07-24T06:20:30.629Z,15.7
2017-07-24T06:20:56.104Z,15.76
2017-07-24T06:21:21.586Z,15.75
2017-07-24T06:21:47.083Z,15.79
2017-07-24T06:22:12.572Z,15.68
2017-07-24T06:22:38.001Z,15.72
2017-07-24T06:23:03.513Z,15.75
2017-07-24T06:23:28.964Z,15.76
2017-07-24T06:23:54.442Z,15.77
2017-07-24T06:24:19.898Z,15.79
2017-07-24T06:24:45.370Z,15.73
2017-07-24T06:25:10.862Z,15.73
2017-07-24T06:25:36.352Z,15.72
2017-07-24T06:26:01.846Z,15.68
2017-07-24T06:26:27.309Z,15.68
2017-07-24T06:26:52.761Z,15.72
2017-07-24T06:27:18.217Z,15.8
2017-07-24T06:27:43.674Z,15.75
2017-07-24T06:28:09.158Z,15.8
2017-07-24T06:28:34.624Z,15.83
2017-07-24T06:29:00.095Z,15.73
2017-07-24T06:29:25.606Z,15.8
2017-07-24T06:29:51.065Z,15.82
2017-07-24T06:30:16.519Z,15.83
2017-07-24T06:30:41.998Z,15.76
2017-07-24T06:31:07.478Z,15.9
2017-07-24T06:31:32.960Z,15.8
2017-07-24T06:31:58.461Z,15.83
2017-07-24T06:32:24.009Z,15.86
2017-07-24T06:32:49.492Z,15.8
2017-07-24T06:33:14.976Z,15.84
2017-07-24T06:33:40.466Z,15.84
2017-07-24T06:34:05.929Z,15.94
2017-07-24T06:34:31.426Z,15.84
2017-07-24T06:34:56.918Z,15.83
2017-07-24T06:35:22.391Z,15.86
2017-07-24T06:35:47.900Z,15.91
2017-07-24T06:36:13.387Z,15.82
2017-07-24T06:36:38.862Z,15.98
2017-07-24T06:37:04.356Z,15.9
2017-07-24T06:37:29.868Z,15.82
2017-07-24T06:37:55.302Z,15.83
2017-07-24T06:38:20.793Z,15.84
2017-07-24T06:38:46.269Z,15.92
2017-07-24T06:39:11.762Z,15.9
2017-07-24T06:39:37.244Z,15.86
2017-07-24T06:40:02.740Z,15.91
2017-07-24T06:40:28.198Z,15.97
2017-07-24T06:40:53.694Z,15.9
2017-07-24T06:41:19.178Z,15.92
2017-07-24T06:41:44.641Z,15.92
2017-07-24T06:42:10.144Z,15.84
2017-07-24T06:42:35.566Z,15.95
2017-07-24T06:43:01.035Z,15.86
2017-07-24T06:43:26.533Z,15.83
2017-07-24T06:43:52.052Z,16.02
2017-07-24T06:44:17.530Z,15.95
2017-07-24T06:44:43.070Z,15.95
2017-07-24T06:45:08.537Z,15.91
2017-07-24T06:45:34.053Z,15.91
2017-07-24T06:45:59.532Z,15.9
2017-07-24T06:46:24.996Z,15.95
2017-07-24T06:46:50.463Z,15.9
2017-07-24T06:47:15.941Z,15.9
2017-07-24T06:47:41.423Z,15.92
2017-07-24T06:48:06.914Z,15.88
2017-07-24T06:48:32.395Z,15.9
2017-07-24T06:48:57.837Z,15.94
2017-07-24T06:49:23.306Z,15.95
2017-07-24T06:49:48.794Z,15.92
2017-07-24T06:50:14.365Z,15.97
2017-07-24T06:50:39.862Z,15.94
2017-07-24T06:51:05.349Z,15.91
2017-07-24T06:51:30.829Z,15.94
2017-07-24T06:51:56.307Z,15.88
2017-07-24T06:52:21.784Z,15.92
2017-07-24T06:52:47.277Z,15.95
2017-07-24T06:53:12.737Z,16.04
2017-07-24T06:53:38.205Z,15.92
2017-07-24T06:54:03.696Z,15.92
2017-07-24T06:54:29.181Z,15.92
2017-07-24T06:54:54.651Z,15.92
2017-07-24T06:55:20.110Z,15.91
2017-07-24T06:55:45.606Z,15.97
2017-07-24T06:56:11.109Z,16.09
2017-07-24T06:56:36.589Z,16.04
2017-07-24T06:57:02.055Z,15.92
2017-07-24T06:57:27.531Z,15.98
2017-07-24T06:57:53.009Z,15.92
2017-07-24T06:58:18.468Z,15.97
2017-07-24T06:58:43.954Z,15.95
2017-07-24T06:59:09.426Z,16.01
2017-07-24T06:59:34.877Z,15.95
2017-07-24T07:00:00.359Z,16.08
2017-07-24T07:00:25.829Z,16.02
2017-07-24T07:00:51.326Z,16.05
2017-07-24T07:01:16.816Z,16.1
2017-07-24T07:01:42.301Z,16.08
2017-07-24T07:02:07.763Z,16.12
2017-07-24T07:02:33.253Z,16.1
2017-07-24T07:02:58.753Z,16.15
2017-07-24T07:03:24.289Z,16.05
2017-07-24T07:03:49.742Z,16.15
2017-07-24T07:04:15.230Z,16.16
2017-07-24T07:04:40.693Z,16.17
2017-07-24T07:05:06.164Z,16.09
2017-07-24T07:05:31.634Z,16.09
2017-07-24T07:05:57.093Z,16.12
2017-07-24T07:06:22.537Z,16.16
2017-07-24T07:06:48.002Z,16.15
2017-07-24T07:07:13.461Z,16.12
2017-07-24T07:07:38.950Z,16.23
2017-07-24T07:08:04.448Z,16.12
2017-07-24T07:08:29.906Z,16.1
2017-07-24T07:08:55.363Z,16.16
2017-07-24T07:09:20.884Z,16.16
2017-07-24T07:09:46.426Z,16.15
2017-07-24T07:10:11.878Z,16.16
2017-07-24T07:10:37.374Z,16.24
2017-07-24T07:11:02.807Z,16.2
2017-07-24T07:11:28.270Z,16.1
2017-07-24T07:11:53.746Z,16.15
2017-07-24T07:12:19.233Z,16.13
2017-07-24T07:12:44.664Z,16.26
2017-07-24T07:13:10.162Z,16.12
2017-07-24T07:13:35.628Z,16.2
2017-07-24T07:14:01.075Z,16.23
2017-07-24T07:14:26.524Z,16.13
2017-07-24T07:14:51.972Z,16.15
2017-07-24T07:15:17.472Z,16.28
2017-07-24T07:15:42.929Z,16.26
2017-07-24T07:16:08.429Z,16.32
2017-07-24T07:16:33.900Z,16.24
2017-07-24T07:16:59.332Z,16.23
2017-07-24T07:17:24.806Z,16.23
2017-07-24T07:17:50.232Z,16.24
2017-07-24T07:18:15.723Z,16.29
2017-07-24T07:18:41.163Z,16.31
2017-07-24T07:19:06.640Z,16.26
2017-07-24T07:19:32.086Z,16.21
2017-07-24T07:19:57.565Z,16.32
2017-07-24T07:20:23.031Z,16.28
2017-07-24T07:20:48.525Z,16.24
2017-07-24T07:21:14.004Z,16.31
2017-07-24T07:21:39.547Z,16.23
2017-07-24T07:22:04.900Z,16.26
2017-07-24T07:22:30.393Z,16.23
2017-07-24T07:22:55.857Z,16.23
2017-07-24T07:23:21.272Z,16.26
2017-07-24T07:23:46.736Z,16.28
2017-07-24T07:24:12.198Z,16.24
2017-07-24T07:24:37.656Z,16.29
2017-07-24T07:25:03.143Z,16.33
2017-07-24T07:25:28.586Z,16.33
2017-07-24T07:25:54.065Z,16.29
2017-07-24T07:26:19.542Z,16.31
2017-07-24T07:26:44.971Z,16.26
2017-07-24T07:27:10.461Z,16.24
2017-07-24T07:27:35.931Z,16.21
2017-07-24T07:28:01.362Z,16.28
2017-07-24T07:28:26.822Z,16.28
2017-07-24T07:28:52.271Z,16.28
2017-07-24T07:29:17.740Z,16.29
2017-07-24T07:29:43.216Z,16.28
2017-07-24T07:30:08.713Z,16.23
2017-07-24T07:30:34.168Z,16.32
2017-07-24T07:30:59.637Z,16.29
2017-07-24T07:31:25.098Z,16.17
2017-07-24T07:31:50.538Z,16.26
2017-07-24T07:32:16.015Z,16.21
2017-07-24T07:32:41.477Z,16.28
2017-07-24T07:33:06.924Z,16.26
2017-07-24T07:33:32.385Z,16.28
2017-07-24T07:33:57.840Z,16.31
2017-07-24T07:34:23.285Z,16.26
2017-07-24T07:34:48.725Z,16.26
2017-07-24T07:35:14.207Z,16.31
2017-07-24T07:35:39.674Z,16.28
2017-07-24T07:36:05.123Z,16.26
2017-07-24T07:36:30.571Z,16.21
2017-07-24T07:36:56.026Z,16.16
2017-07-24T07:37:21.487Z,16.21
2017-07-24T07:37:46.952Z,16.2
2017-07-24T07:38:12.427Z,16.21
2017-07-24T07:38:37.854Z,16.21
2017-07-24T07:39:03.301Z,16.21
2017-07-24T07:39:28.805Z,16.2
2017-07-24T07:39:54.254Z,16.1
2017-07-24T07:40:19.721Z,16.16
2017-07-24T07:40:45.213Z,16.12
2017-07-24T07:41:10.654Z,16.2
2017-07-24T07:41:36.158Z,16.16
2017-07-24T07:42:01.602Z,16.23
2017-07-24T07:42:27.036Z,16.15
2017-07-24T07:42:52.513Z,16.17
2017-07-24T07:43:17.967Z,16.15
2017-07-24T07:43:43.430Z,16.15
2017-07-24T07:44:08.885Z,16.09
2017-07-24T07:44:34.331Z,16.1
2017-07-24T07:44:59.804Z,16.09
2017-07-24T07:45:25.294Z,16.12
2017-07-24T07:45:50.743Z,16.13
2017-07-24T07:46:16.238Z,16.13
2017-07-24T07:46:41.712Z,16.12
2017-07-24T07:47:07.202Z,16.12
2017-07-24T07:47:32.696Z,16.17
2017-07-24T07:47:58.121Z,16.1
2017-07-24T07:48:23.602Z,16.09
2017-07-24T07:48:49.065Z,16.09
2017-07-24T07:49:14.501Z,16.08
2017-07-24T07:49:39.991Z,16.13
2017-07-24T07:50:05.466Z,16.05
2017-07-24T07:50:30.908Z,16.05
2017-07-24T07:50:56.358Z,16.02
2017-07-24T07:51:21.818Z,16.05
2017-07-24T07:51:47.287Z,16.08
2017-07-24T07:52:12.741Z,16.01
2017-07-24T07:52:38.306Z,16.08
2017-07-24T07:53:03.787Z,16.01
2017-07-24T07:53:29.258Z,16
2017-07-24T07:53:54.746Z,16
2017-07-24T07:54:20.166Z,15.98
2017-07-24T07:54:45.637Z,15.98
2017-07-24T07:55:11.078Z,15.92
2017-07-24T07:55:36.555Z,16.02
2017-07-24T07:56:02.029Z,15.97
2017-07-24T07:56:27.535Z,16
2017-07-24T07:56:53.007Z,15.92
2017-07-24T07:57:18.469Z,16.02
2017-07-24T07:57:43.975Z,15.91
2017-07-24T07:58:09.489Z,16.05
2017-07-24T07:58:34.937Z,15.91
2017-07-24T07:59:00.440Z,15.91
2017-07-24T07:59:25.932Z,15.94
2017-07-24T07:59:51.390Z,15.95
2017-07-24T08:00:17.031Z,15.97
2017-07-24T08:00:42.529Z,15.98
2017-07-24T08:01:08.037Z,15.97
2017-07-24T08:01:33.459Z,15.98
2017-07-24T08:01:58.952Z,16.05
2017-07-24T08:02:24.417Z,16.08
2017-07-24T08:02:49.975Z,16.01
2017-07-24T08:03:15.487Z,16.08
2017-07-24T08:03:40.919Z,16.02
2017-07-24T08:04:06.480Z,16.05
2017-07-24T08:04:31.926Z,16.1
2017-07-24T08:04:57.372Z,16.2
2017-07-24T08:05:22.780Z,16.16
2017-07-24T08:05:48.245Z,16.16
2017-07-24T08:06:13.703Z,16.12
2017-07-24T08:06:39.180Z,16.16
2017-07-24T08:07:04.644Z,16.17
2017-07-24T08:07:30.182Z,16.15
2017-07-24T08:07:55.647Z,16.15
2017-07-24T08:08:21.061Z,16.23
2017-07-24T08:08:46.555Z,16.23
2017-07-24T08:09:12.053Z,16.21
2017-07-24T08:09:37.497Z,16.16
2017-07-24T08:10:02.948Z,16.16
2017-07-24T08:10:28.401Z,16.13
2017-07-24T08:10:53.842Z,16.16
2017-07-24T08:11:19.317Z,16.17
2017-07-24T08:11:44.751Z,16.31
2017-07-24T08:12:10.243Z,16.13
2017-07-24T08:12:35.668Z,16.2
2017-07-24T08:13:01.122Z,16.15
2017-07-24T08:13:26.593Z,16.28
2017-07-24T08:13:52.021Z,16.26
2017-07-24T08:14:17.515Z,16.29
2017-07-24T08:14:43.058Z,16.15
2017-07-24T08:15:08.489Z,16.21
2017-07-24T08:15:33.952Z,16.24
2017-07-24T08:15:59.415Z,16.28
2017-07-24T08:16:24.923Z,16.16
2017-07-24T08:16:50.380Z,16.28
2017-07-24T08:17:15.791Z,16.31
2017-07-24T08:17:41.247Z,16.31
2017-07-24T08:18:06.707Z,16.35
2017-07-24T08:18:32.161Z,16.28
2017-07-24T08:18:57.601Z,16.31
2017-07-24T08:19:23.118Z,16.28
2017-07-24T08:19:48.575Z,16.28
2017-07-24T08:20:13.974Z,16.28
2017-07-24T08:20:39.440Z,16.26
2017-07-24T08:21:04.909Z,16.28
2017-07-24T08:21:30.357Z,16.24
2017-07-24T08:21:55.802Z,16.28
2017-07-24T08:22:21.246Z,16.29
2017-07-24T08:22:46.730Z,16.28
2017-07-24T08:23:12.188Z,16.23
2017-07-24T08:23:37.657Z,16.24
2017-07-24T08:24:03.113Z,16.16
2017-07-24T08:24:28.594Z,16.24
2017-07-24T08:24:54.049Z,16.2
2017-07-24T08:25:19.490Z,16.17
2017-07-24T08:25:44.935Z,16.2
2017-07-24T08:26:10.421Z,16.16
2017-07-24T08:26:35.827Z,16.16
2017-07-24T08:27:01.292Z,16.1
2017-07-24T08:27:26.762Z,16.1
2017-07-24T08:27:52.254Z,16.17
2017-07-24T08:28:17.754Z,16.2
2017-07-24T08:28:43.181Z,16.2
2017-07-24T08:29:08.671Z,16.23
2017-07-24T08:29:34.171Z,16.1
2017-07-24T08:29:59.650Z,16.16
2017-07-24T08:30:25.103Z,16.21
2017-07-24T08:30:50.566Z,16.26
2017-07-24T08:31:16.036Z,16.24
2017-07-24T08:31:41.524Z,16.2
2017-07-24T08:32:06.946Z,16.21
2017-07-24T08:32:32.445Z,16.28
2017-07-24T08:32:57.873Z,16.2
2017-07-24T08:33:23.392Z,16.16
2017-07-24T08:33:48.870Z,16.2
2017-07-24T08:34:14.352Z,16.13
2017-07-24T08:34:39.826Z,16.17
2017-07-24T08:35:05.341Z,16.2
2017-07-24T08:35:30.799Z,16.17
2017-07-24T08:35:56.276Z,16.23
2017-07-24T08:36:21.798Z,16.1
2017-07-24T08:36:47.311Z,16.16
2017-07-24T08:37:12.740Z,16.23
2017-07-24T08:37:38.249Z,16.16
2017-07-24T08:38:03.708Z,16.16
2017-07-24T08:38:29.196Z,16.15
2017-07-24T08:38:54.733Z,16.15
2017-07-24T08:39:20.224Z,16.2
2017-07-24T08:39:45.677Z,16.16
2017-07-24T08:40:11.128Z,16.12
2017-07-24T08:40:36.626Z,16.17
2017-07-24T08:41:02.087Z,16.2
2017-07-24T08:41:27.642Z,16.16
2017-07-24T08:41:53.028Z,16.13
2017-07-24T08:42:18.487Z,16.17
2017-07-24T08:42:44.007Z,16.2
2017-07-24T08:43:09.456Z,16.12
2017-07-24T08:43:34.893Z,16.16
2017-07-24T08:44:00.351Z,16.17
2017-07-24T08:44:25.884Z,16.12
2017-07-24T08:44:51.362Z,16.16
2017-07-24T08:45:16.800Z,16.23
2017-07-24T08:45:42.267Z,16.16
2017-07-24T08:46:07.731Z,16.21
2017-07-24T08:46:33.176Z,16.17
2017-07-24T08:46:58.650Z,16.17
2017-07-24T08:47:24.274Z,16.12
2017-07-24T08:47:49.758Z,16.17
2017-07-24T08:48:15.217Z,16.21
2017-07-24T08:48:40.695Z,16.21
2017-07-24T08:49:06.135Z,16.2
2017-07-24T08:49:31.594Z,16.21
2017-07-24T08:49:57.059Z,16.2
2017-07-24T08:50:22.548Z,16.23
2017-07-24T08:50:47.996Z,16.24
2017-07-24T08:51:13.464Z,16.16
2017-07-24T08:51:38.920Z,16.16
2017-07-24T08:52:04.395Z,16.26
2017-07-24T08:52:29.890Z,16.29
2017-07-24T08:52:55.344Z,16.16
2017-07-24T08:53:20.819Z,16.2
2017-07-24T08:53:46.275Z,16.2
2017-07-24T08:54:11.738Z,16.26
2017-07-24T08:54:37.241Z,16.21
2017-07-24T08:55:02.687Z,16.23
2017-07-24T08:55:28.169Z,16.33
2017-07-24T08:55:53.594Z,16.31
2017-07-24T08:56:19.074Z,16.26
2017-07-24T08:56:44.521Z,16.26
2017-07-24T08:57:09.988Z,16.23
2017-07-24T08:57:35.448Z,16.28
2017-07-24T08:58:00.937Z,16.21
2017-07-24T08:58:26.382Z,16.24
2017-07-24T08:58:51.831Z,16.24
2017-07-24T08:59:17.279Z,16.29
2017-07-24T08:59:42.762Z,16.31
2017-07-24T09:00:08.189Z,16.29
2017-07-24T09:00:33.641Z,16.32
2017-07-24T09:00:59.085Z,16.32
2017-07-24T09:01:24.544Z,16.39
2017-07-24T09:01:50.027Z,16.39
2017-07-24T09:02:15.497Z,16.38
2017-07-24T09:02:40.947Z,16.39
2017-07-24T09:03:06.408Z,16.41
2017-07-24T09:03:31.865Z,16.38
2017-07-24T09:03:57.326Z,16.42
2017-07-24T09:04:22.800Z,16.32
2017-07-24T09:04:48.260Z,16.39
2017-07-24T09:05:13.793Z,16.38
2017-07-24T09:05:39.261Z,16.35
2017-07-24T09:06:04.730Z,16.41
2017-07-24T09:06:30.192Z,16.38
2017-07-24T09:06:55.647Z,16.39
2017-07-24T09:07:21.099Z,16.42
2017-07-24T09:07:46.570Z,16.38
2017-07-24T09:08:12.023Z,16.41
2017-07-24T09:08:37.486Z,16.42
2017-07-24T09:09:02.941Z,16.39
2017-07-24T09:09:28.491Z,16.41
2017-07-24T09:09:53.958Z,16.39
2017-07-24T09:10:19.408Z,16.35
2017-07-24T09:10:44.894Z,16.47
2017-07-24T09:11:10.370Z,16.36
2017-07-24T09:11:35.792Z,16.42
2017-07-24T09:12:01.261Z,16.43
2017-07-24T09:12:26.732Z,16.38
2017-07-24T09:12:52.205Z,16.43
2017-07-24T09:13:17.672Z,16.41
2017-07-24T09:13:43.123Z,16.43
2017-07-24T09:14:08.588Z,16.39
2017-07-24T09:14:34.070Z,16.47
2017-07-24T09:14:59.557Z,16.42
2017-07-24T09:15:25.036Z,16.49
2017-07-24T09:15:50.466Z,16.47
2017-07-24T09:16:15.951Z,16.39
2017-07-24T09:16:41.398Z,16.5
2017-07-24T09:17:06.903Z,16.5
2017-07-24T09:17:32.346Z,16.51
2017-07-24T09:17:57.813Z,16.49
2017-07-24T09:18:23.247Z,16.43
2017-07-24T09:18:48.735Z,16.43
2017-07-24T09:19:14.190Z,16.51
2017-07-24T09:19:39.661Z,16.57
2017-07-24T09:20:05.137Z,16.46
2017-07-24T09:20:30.608Z,16.5
2017-07-24T09:20:56.062Z,16.53
2017-07-24T09:21:21.543Z,16.53
2017-07-24T09:21:47.002Z,16.49
2017-07-24T09:22:12.462Z,16.49
2017-07-24T09:22:37.933Z,16.61
2017-07-24T09:23:03.409Z,16.5
2017-07-24T09:23:28.879Z,16.51
2017-07-24T09:23:54.339Z,16.54
2017-07-24T09:24:19.802Z,16.46
2017-07-24T09:24:45.276Z,16.53
2017-07-24T09:25:10.748Z,16.58
2017-07-24T09:25:36.228Z,16.54
2017-07-24T09:26:01.666Z,16.64
2017-07-24T09:26:27.136Z,16.56
2017-07-24T09:26:52.588Z,16.51
2017-07-24T09:27:18.058Z,16.64
2017-07-24T09:27:43.527Z,16.64
2017-07-24T09:28:08.985Z,16.58
2017-07-24T09:28:34.459Z,16.65
2017-07-24T09:28:59.906Z,16.66
2017-07-24T09:29:25.365Z,16.6
2017-07-24T09:29:50.833Z,16.58
2017-07-24T09:30:16.265Z,16.61
2017-07-24T09:30:41.698Z,16.6
2017-07-24T09:31:07.151Z,16.64
2017-07-24T09:31:32.623Z,16.64
2017-07-24T09:31:58.125Z,16.71
2017-07-24T09:32:23.543Z,16.64
2017-07-24T09:32:49.008Z,16.68
2017-07-24T09:33:14.456Z,16.57
2017-07-24T09:33:39.921Z,16.57
2017-07-24T09:34:05.413Z,16.6
2017-07-24T09:34:30.875Z,16.51
2017-07-24T09:34:56.311Z,16.57
2017-07-24T09:35:21.788Z,16.57
2017-07-24T09:35:47.234Z,16.56
2017-07-24T09:36:12.703Z,16.54
2017-07-24T09:36:38.189Z,16.6
2017-07-24T09:37:03.619Z,16.56
2017-07-24T09:37:29.082Z,16.5
2017-07-24T09:37:54.564Z,16.58
2017-07-24T09:38:20.007Z,16.51
2017-07-24T09:38:45.486Z,16.5
2017-07-24T09:39:10.976Z,16.5
2017-07-24T09:39:36.429Z,16.54
2017-07-24T09:40:01.882Z,16.5
2017-07-24T09:40:27.398Z,16.53
2017-07-24T09:40:52.856Z,16.53
2017-07-24T09:41:18.316Z,16.53
2017-07-24T09:41:43.805Z,16.47
2017-07-24T09:42:09.282Z,16.47
2017-07-24T09:42:34.753Z,16.53
2017-07-24T09:43:00.202Z,16.46
2017-07-24T09:43:25.663Z,16.46
2017-07-24T09:43:51.149Z,16.5
2017-07-24T09:44:16.593Z,16.56
2017-07-24T09:44:42.053Z,16.5
2017-07-24T09:45:07.545Z,16.5
2017-07-24T09:45:33.013Z,16.5
2017-07-24T09:45:58.459Z,16.46
2017-07-24T09:46:23.933Z,16.46
2017-07-24T09:46:49.419Z,16.43
2017-07-24T09:47:14.872Z,16.41
2017-07-24T09:47:40.343Z,16.47
2017-07-24T09:48:05.818Z,16.5
2017-07-24T09:48:31.266Z,16.5
2017-07-24T09:48:56.757Z,16.47
2017-07-24T09:49:22.214Z,16.47
2017-07-24T09:49:47.678Z,16.5
2017-07-24T09:50:13.130Z,16.43
2017-07-24T09:50:38.608Z,16.58
2017-07-24T09:51:04.016Z,16.64
2017-07-24T09:51:29.573Z,16.57
2017-07-24T09:51:54.993Z,16.51
2017-07-24T09:52:20.429Z,16.5
2017-07-24T09:52:45.902Z,16.5
2017-07-24T09:53:11.446Z,16.57
2017-07-24T09:53:36.935Z,16.54
2017-07-24T09:54:02.459Z,16.56
2017-07-24T09:54:27.884Z,16.54
2017-07-24T09:54:53.352Z,16.5
2017-07-24T09:55:18.784Z,16.42
2017-07-24T09:55:44.263Z,16.42
2017-07-24T09:56:09.713Z,16.46
2017-07-24T09:56:35.177Z,16.42
2017-07-24T09:57:00.680Z,16.41
2017-07-24T09:57:26.156Z,16.43
2017-07-24T09:57:51.601Z,16.39
2017-07-24T09:58:17.054Z,16.33
2017-07-24T09:58:42.508Z,16.41
2017-07-24T09:59:07.957Z,16.35
2017-07-24T09:59:33.462Z,16.42
2017-07-24T09:59:58.921Z,16.36
2017-07-24T10:00:24.382Z,16.42
2017-07-24T10:00:49.851Z,16.35
2017-07-24T10:01:15.324Z,16.39
2017-07-24T10:01:40.819Z,16.39
2017-07-24T10:02:06.296Z,16.35
2017-07-24T10:02:31.766Z,16.47
2017-07-24T10:02:57.226Z,16.5
2017-07-24T10:03:22.700Z,16.41
2017-07-24T10:03:48.123Z,16.42
2017-07-24T10:04:13.607Z,16.42
2017-07-24T10:04:39.107Z,16.46
2017-07-24T10:05:04.572Z,16.43
2017-07-24T10:05:29.972Z,16.36
2017-07-24T10:05:55.440Z,16.41
2017-07-24T10:06:20.917Z,16.39
2017-07-24T10:06:46.398Z,16.42
2017-07-24T10:07:11.848Z,16.39
2017-07-24T10:07:37.312Z,16.41
2017-07-24T10:08:02.781Z,16.38
2017-07-24T10:08:28.223Z,16.42
2017-07-24T10:08:53.718Z,16.35
2017-07-24T10:09:19.205Z,16.41
2017-07-24T10:09:44.681Z,16.42
2017-07-24T10:10:10.147Z,16.38
2017-07-24T10:10:35.599Z,16.43
2017-07-24T10:11:01.121Z,16.46
2017-07-24T10:11:26.540Z,16.49
2017-07-24T10:11:51.994Z,16.41
2017-07-24T10:12:17.451Z,16.46
2017-07-24T10:12:42.890Z,16.49
2017-07-24T10:13:08.409Z,16.47
2017-07-24T10:13:33.776Z,16.56
2017-07-24T10:13:59.262Z,16.46
2017-07-24T10:14:24.702Z,16.5
2017-07-24T10:14:50.143Z,16.56
2017-07-24T10:15:15.643Z,16.49
2017-07-24T10:15:41.126Z,16.46
2017-07-24T10:16:06.545Z,16.5
2017-07-24T10:16:32.021Z,16.5
2017-07-24T10:16:57.460Z,16.42
2017-07-24T10:17:22.952Z,16.46
2017-07-24T10:17:48.393Z,16.49
2017-07-24T10:18:13.836Z,16.47
2017-07-24T10:18:39.294Z,16.42
2017-07-24T10:19:04.753Z,16.42
2017-07-24T10:19:30.246Z,16.49
2017-07-24T10:19:55.711Z,16.38
2017-07-24T10:20:21.159Z,16.35
2017-07-24T10:20:46.633Z,16.38
2017-07-24T10:21:12.080Z,16.46
2017-07-24T10:21:37.542Z,16.43
2017-07-24T10:22:03.006Z,16.39
2017-07-24T10:22:28.476Z,16.31
2017-07-24T10:22:53.943Z,16.35
2017-07-24T10:23:19.404Z,16.31
2017-07-24T10:23:44.897Z,16.33
2017-07-24T10:24:10.331Z,16.31
2017-07-24T10:24:35.844Z,16.23
2017-07-24T10:25:01.261Z,16.28
2017-07-24T10:25:26.705Z,16.28
2017-07-24T10:25:52.152Z,16.23
2017-07-24T10:26:17.596Z,16.29
2017-07-24T10:26:43.063Z,16.23
2017-07-24T10:27:08.524Z,16.29
2017-07-24T10:27:34.039Z,16.29
2017-07-24T10:27:59.477Z,16.23
2017-07-24T10:28:24.931Z,16.26
2017-07-24T10:28:50.408Z,16.26
2017-07-24T10:29:15.873Z,16.39
2017-07-24T10:29:41.318Z,16.31
2017-07-24T10:30:06.788Z,16.43
2017-07-24T10:30:32.254Z,16.41
2017-07-24T10:30:57.716Z,16.43
2017-07-24T10:31:23.159Z,16.41
2017-07-24T10:31:48.636Z,16.35
2017-07-24T10:32:14.112Z,16.36
2017-07-24T10:32:39.586Z,16.35
2017-07-24T10:33:05.049Z,16.42
2017-07-24T10:33:30.532Z,16.43
2017-07-24T10:33:55.966Z,16.42
2017-07-24T10:34:21.421Z,16.42
2017-07-24T10:34:46.856Z,16.43
2017-07-24T10:35:12.317Z,16.42
2017-07-24T10:35:37.785Z,16.39
2017-07-24T10:36:03.259Z,16.39
2017-07-24T10:36:28.711Z,16.35
2017-07-24T10:36:54.196Z,16.39
2017-07-24T10:37:19.631Z,16.43
2017-07-24T10:37:45.110Z,16.38
2017-07-24T10:38:10.577Z,16.5
2017-07-24T10:38:36.020Z,16.5
2017-07-24T10:39:01.535Z,16.5
2017-07-24T10:39:26.976Z,16.42
2017-07-24T10:39:52.448Z,16.42
2017-07-24T10:40:17.896Z,16.49
2017-07-24T10:40:43.343Z,16.49
2017-07-24T10:41:08.820Z,16.39
2017-07-24T10:41:34.270Z,16.38
2017-07-24T10:41:59.760Z,16.36
2017-07-24T10:42:25.206Z,16.41
2017-07-24T10:42:50.662Z,16.38
2017-07-24T10:43:16.144Z,16.43
2017-07-24T10:43:41.569Z,16.36
2017-07-24T10:44:07.055Z,16.32
2017-07-24T10:44:32.524Z,16.38
2017-07-24T10:44:57.994Z,16.46
2017-07-24T10:45:23.438Z,16.39
2017-07-24T10:45:48.906Z,16.33
2017-07-24T10:46:14.349Z,16.41
2017-07-24T10:46:39.848Z,16.36
2017-07-24T10:47:05.310Z,16.43
2017-07-24T10:47:30.780Z,16.39
2017-07-24T10:47:56.217Z,16.42
2017-07-24T10:48:21.689Z,16.42
2017-07-24T10:48:47.138Z,16.41
2017-07-24T10:49:12.613Z,16.39
2017-07-24T10:49:38.045Z,16.38
2017-07-24T10:50:03.494Z,16.46
2017-07-24T10:50:28.952Z,16.47
2017-07-24T10:50:54.438Z,16.49
2017-07-24T10:51:19.860Z,16.41
2017-07-24T10:51:45.308Z,16.53
2017-07-24T10:52:10.786Z,16.38
2017-07-24T10:52:36.291Z,16.47
2017-07-24T10:53:01.780Z,16.51
2017-07-24T10:53:27.251Z,16.5
2017-07-24T10:53:52.730Z,16.53
2017-07-24T10:54:18.188Z,16.53
2017-07-24T10:54:43.641Z,16.5
2017-07-24T10:55:09.125Z,16.5
2017-07-24T10:55:34.607Z,16.54
2017-07-24T10:56:00.033Z,16.46
2017-07-24T10:56:25.514Z,16.51
2017-07-24T10:56:50.959Z,16.54
2017-07-24T10:57:16.438Z,16.54
2017-07-24T10:57:41.907Z,16.68
2017-07-24T10:58:07.335Z,16.66
2017-07-24T10:58:32.823Z,16.66
2017-07-24T10:58:58.255Z,16.66
2017-07-24T10:59:23.717Z,16.65
2017-07-24T10:59:49.179Z,16.65
2017-07-24T11:00:14.646Z,16.71
2017-07-24T11:00:40.226Z,16.81